Amazon — A8UI8 — position and weather

sailwx.info

Track history (hours):
 
Tides and Currents Weather Stations Pressure Air Temp Water Temp Dewpoint Dewpoint Depression Visibility Wind Speed Wind Dir Waves Ship Positions

Amazon

Last reported at 2018-Aug-12 01:10 UTC. Time now 2018-Aug-16 08:00 UTC.
Position N 01°25' E 104°29'.

Length 275 m; draft 12.8 m.

Type: Ship. MMSI: 636014503.

Date/timePositionNaut miles runAvg speedWind from/ knotsBaromVisibWave heightAir tempDewpointWater temp
2018-Aug-12 01:10N 01°25' E 104°29'613.1
2018-Aug-12 00:40N 01°21' E 104°24'313.4
2018-Aug-12 00:27N 01°19' E 104°22'613.4
2018-Aug-11 23:59N 01°16' E 104°16'714.4
2018-Aug-11 23:30N 01°15' E 104°09'712.9
2018-Aug-11 22:59N 01°14' E 104°02'2 4.9
2018-Aug-11 22:30N 01°14' E 103°60'2 2.9
2018-Aug-11 21:59N 01°14' E 103°58'2 4.5
2018-Aug-11 21:30N 01°13' E 103°56'4 8.3
2018-Aug-11 21:00N 01°12' E 103°53'613.0
2018-Aug-11 20:30N 01°09' E 103°47'612.6
2018-Aug-11 20:01N 01°05' E 103°42'5 9.4
2018-Aug-11 19:30N 01°03' E 103°38'5 9.1
2018-Aug-11 19:01N 01°06' E 103°33'610.8
2018-Aug-11 18:29N 01°09' E 103°29'612.2
2018-Aug-11 18:00N 01°12' E 103°24'612.3
2018-Aug-11 17:30N 01°16' E 103°19'711.8
2018-Aug-11 16:56N 01°20' E 103°14'612.3
2018-Aug-11 16:24N 01°24' E 103°09'512.3
2018-Aug-11 15:59N 01°27' E 103°05'  
Track history (hours):
 
Tides and Currents Weather Stations Pressure Air Temp Water Temp Dewpoint Dewpoint Depression Visibility Wind Speed Wind Dir Waves Ship Positions

Amazon

Last reported at 2018-Aug-12 01:10 UTC. Time now 2018-Aug-16 08:00 UTC.
Position N 01°25' E 104°29'.

Length 275 m; draft 12.8 m.

Type: Ship. MMSI: 636014503.

Date/timePositionNaut miles runAvg speedWind from/ knotsBaromVisibWave heightAir tempDewpointWater temp
2018-Aug-12 01:10N 01°25' E 104°29'613.1
2018-Aug-12 00:40N 01°21' E 104°24'313.4
2018-Aug-12 00:27N 01°19' E 104°22'613.4
2018-Aug-11 23:59N 01°16' E 104°16'714.4
2018-Aug-11 23:30N 01°15' E 104°09'712.9
2018-Aug-11 22:59N 01°14' E 104°02'2 4.9
2018-Aug-11 22:30N 01°14' E 103°60'2 2.9
2018-Aug-11 21:59N 01°14' E 103°58'2 4.5
2018-Aug-11 21:30N 01°13' E 103°56'4 8.3
2018-Aug-11 21:00N 01°12' E 103°53'613.0
2018-Aug-11 20:30N 01°09' E 103°47'612.6
2018-Aug-11 20:01N 01°05' E 103°42'5 9.4
2018-Aug-11 19:30N 01°03' E 103°38'5 9.1
2018-Aug-11 19:01N 01°06' E 103°33'610.8
2018-Aug-11 18:29N 01°09' E 103°29'612.2
2018-Aug-11 18:00N 01°12' E 103°24'612.3
2018-Aug-11 17:30N 01°16' E 103°19'711.8
2018-Aug-11 16:56N 01°20' E 103°14'612.3
2018-Aug-11 16:24N 01°24' E 103°09'512.3
2018-Aug-11 15:59N 01°27' E 103°05'  

Dump ship's entire track history